sensor_id;sensor_type;location;lat;lon;timestamp;P1;durP1;ratioP1;P2;durP2;ratioP2
66342;SDS011;53144;51.524;5.080;2022-12-08T00:01:19;16.60;;;10.90;;
66342;SDS011;53144;51.524;5.080;2022-12-08T00:03:49;14.18;;;10.23;;
66342;SDS011;53144;51.524;5.080;2022-12-08T00:09:07;17.98;;;10.48;;
66342;SDS011;53144;51.524;5.080;2022-12-08T00:12:09;14.95;;;10.68;;
66342;SDS011;53144;51.524;5.080;2022-12-08T00:14:39;13.90;;;10.48;;
66342;SDS011;53144;51.524;5.080;2022-12-08T00:17:07;12.65;;;9.85;;
66342;SDS011;53144;51.524;5.080;2022-12-08T00:19:34;17.42;;;10.10;;
66342;SDS011;53144;51.524;5.080;2022-12-08T00:24:30;15.63;;;9.68;;
66342;SDS011;53144;51.524;5.080;2022-12-08T00:26:58;13.93;;;10.13;;
66342;SDS011;53144;51.524;5.080;2022-12-08T00:29:24;12.30;;;9.63;;
66342;SDS011;53144;51.524;5.080;2022-12-08T00:31:49;14.17;;;10.17;;
66342;SDS011;53144;51.524;5.080;2022-12-08T00:34:15;24.75;;;11.50;;
66342;SDS011;53144;51.524;5.080;2022-12-08T00:36:41;14.23;;;10.30;;
66342;SDS011;53144;51.524;5.080;2022-12-08T00:39:07;14.10;;;10.35;;
66342;SDS011;53144;51.524;5.080;2022-12-08T00:41:33;11.82;;;9.32;;
66342;SDS011;53144;51.524;5.080;2022-12-08T00:44:17;14.95;;;9.55;;
66342;SDS011;53144;51.524;5.080;2022-12-08T00:46:43;10.75;;;8.55;;
66342;SDS011;53144;51.524;5.080;2022-12-08T00:49:10;14.02;;;8.60;;
66342;SDS011;53144;51.524;5.080;2022-12-08T00:51:35;12.32;;;8.55;;
66342;SDS011;53144;51.524;5.080;2022-12-08T00:54:02;11.52;;;7.88;;
66342;SDS011;53144;51.524;5.080;2022-12-08T00:56:28;13.93;;;7.78;;
66342;SDS011;53144;51.524;5.080;2022-12-08T00:58:53;10.73;;;8.07;;
66342;SDS011;53144;51.524;5.080;2022-12-08T01:01:19;9.80;;;7.18;;
66342;SDS011;53144;51.524;5.080;2022-12-08T01:03:47;12.00;;;6.95;;
66342;SDS011;53144;51.524;5.080;2022-12-08T01:06:16;10.70;;;7.32;;
66342;SDS011;53144;51.524;5.080;2022-12-08T01:08:41;10.55;;;6.82;;
66342;SDS011;53144;51.524;5.080;2022-12-08T01:11:13;11.75;;;6.97;;
66342;SDS011;53144;51.524;5.080;2022-12-08T01:13:40;9.43;;;6.53;;
66342;SDS011;53144;51.524;5.080;2022-12-08T01:16:06;10.35;;;6.90;;
66342;SDS011;53144;51.524;5.080;2022-12-08T01:18:35;8.80;;;6.65;;
66342;SDS011;53144;51.524;5.080;2022-12-08T01:21:01;11.13;;;7.07;;
66342;SDS011;53144;51.524;5.080;2022-12-08T01:23:28;11.73;;;7.57;;
66342;SDS011;53144;51.524;5.080;2022-12-08T01:25:54;9.70;;;6.93;;
66342;SDS011;53144;51.524;5.080;2022-12-08T01:28:19;11.02;;;7.45;;
66342;SDS011;53144;51.524;5.080;2022-12-08T01:30:44;9.45;;;6.97;;
66342;SDS011;53144;51.524;5.080;2022-12-08T01:33:10;10.35;;;7.22;;
66342;SDS011;53144;51.524;5.080;2022-12-08T01:35:35;10.13;;;7.32;;
66342;SDS011;53144;51.524;5.080;2022-12-08T01:38:01;9.68;;;7.47;;
66342;SDS011;53144;51.524;5.080;2022-12-08T01:40:29;11.05;;;6.82;;
66342;SDS011;53144;51.524;5.080;2022-12-08T01:42:54;10.38;;;6.57;;
66342;SDS011;53144;51.524;5.080;2022-12-08T01:45:21;10.70;;;7.35;;
66342;SDS011;53144;51.524;5.080;2022-12-08T01:47:54;11.55;;;6.70;;
66342;SDS011;53144;51.524;5.080;2022-12-08T01:50:27;11.27;;;6.63;;
66342;SDS011;53144;51.524;5.080;2022-12-08T01:52:58;9.63;;;6.43;;
66342;SDS011;53144;51.524;5.080;2022-12-08T01:55:36;9.57;;;6.18;;
66342;SDS011;53144;51.524;5.080;2022-12-08T01:58:16;7.35;;;5.25;;
66342;SDS011;53144;51.524;5.080;2022-12-08T02:00:45;7.82;;;5.05;;
66342;SDS011;53144;51.524;5.080;2022-12-08T02:03:12;7.10;;;4.43;;
66342;SDS011;53144;51.524;5.080;2022-12-08T02:05:44;8.32;;;4.10;;
66342;SDS011;53144;51.524;5.080;2022-12-08T02:08:11;5.68;;;3.92;;
66342;SDS011;53144;51.524;5.080;2022-12-08T02:10:38;6.80;;;4.25;;
66342;SDS011;53144;51.524;5.080;2022-12-08T02:13:06;6.53;;;3.75;;
66342;SDS011;53144;51.524;5.080;2022-12-08T02:18:52;5.85;;;4.03;;
66342;SDS011;53144;51.524;5.080;2022-12-08T02:24:21;8.80;;;3.95;;
66342;SDS011;53144;51.524;5.080;2022-12-08T02:27:01;4.90;;;4.38;;
66342;SDS011;53144;51.524;5.080;2022-12-08T02:32:42;6.63;;;4.82;;
66342;SDS011;53144;51.524;5.080;2022-12-08T02:38:08;6.80;;;5.47;;
66342;SDS011;53144;51.524;5.080;2022-12-08T02:41:03;10.10;;;5.53;;
66342;SDS011;53144;51.524;5.080;2022-12-08T02:43:43;8.85;;;6.07;;
66342;SDS011;53144;51.524;5.080;2022-12-08T02:46:16;9.88;;;6.47;;
66342;SDS011;53144;51.524;5.080;2022-12-08T02:49:07;6.93;;;5.13;;
66342;SDS011;53144;51.524;5.080;2022-12-08T02:51:32;9.15;;;5.88;;
66342;SDS011;53144;51.524;5.080;2022-12-08T02:53:58;8.05;;;5.32;;
66342;SDS011;53144;51.524;5.080;2022-12-08T02:56:32;6.43;;;5.30;;
66342;SDS011;53144;51.524;5.080;2022-12-08T03:07:40;9.93;;;6.60;;
66342;SDS011;53144;51.524;5.080;2022-12-08T03:10:24;10.40;;;7.47;;
66342;SDS011;53144;51.524;5.080;2022-12-08T03:12:56;9.25;;;7.18;;
66342;SDS011;53144;51.524;5.080;2022-12-08T03:15:25;9.57;;;7.75;;
66342;SDS011;53144;51.524;5.080;2022-12-08T03:17:52;11.80;;;9.38;;
66342;SDS011;53144;51.524;5.080;2022-12-08T03:20:21;12.25;;;9.45;;
66342;SDS011;53144;51.524;5.080;2022-12-08T03:22:49;17.98;;;11.20;;
66342;SDS011;53144;51.524;5.080;2022-12-08T03:25:18;16.75;;;11.05;;
66342;SDS011;53144;51.524;5.080;2022-12-08T03:27:46;15.82;;;12.35;;
66342;SDS011;53144;51.524;5.080;2022-12-08T03:37:42;19.70;;;14.13;;
66342;SDS011;53144;51.524;5.080;2022-12-08T03:42:35;17.50;;;12.68;;
66342;SDS011;53144;51.524;5.080;2022-12-08T03:45:00;18.02;;;14.18;;
66342;SDS011;53144;51.524;5.080;2022-12-08T03:47:25;17.00;;;13.25;;
66342;SDS011;53144;51.524;5.080;2022-12-08T03:49:51;20.60;;;13.43;;
66342;SDS011;53144;51.524;5.080;2022-12-08T03:52:16;15.45;;;12.27;;
66342;SDS011;53144;51.524;5.080;2022-12-08T03:54:42;16.25;;;11.88;;
66342;SDS011;53144;51.524;5.080;2022-12-08T03:57:07;13.88;;;9.48;;
66342;SDS011;53144;51.524;5.080;2022-12-08T03:59:32;12.32;;;8.45;;
66342;SDS011;53144;51.524;5.080;2022-12-08T04:01:58;10.13;;;7.13;;
66342;SDS011;53144;51.524;5.080;2022-12-08T04:04:23;10.88;;;7.28;;
66342;SDS011;53144;51.524;5.080;2022-12-08T04:06:51;9.30;;;7.28;;
66342;SDS011;53144;51.524;5.080;2022-12-08T04:09:17;7.60;;;5.97;;
66342;SDS011;53144;51.524;5.080;2022-12-08T04:11:42;11.07;;;6.35;;
66342;SDS011;53144;51.524;5.080;2022-12-08T04:14:08;8.00;;;6.40;;
66342;SDS011;53144;51.524;5.080;2022-12-08T04:16:33;6.70;;;5.47;;
66342;SDS011;53144;51.524;5.080;2022-12-08T04:18:59;5.80;;;4.28;;
66342;SDS011;53144;51.524;5.080;2022-12-08T04:21:24;6.35;;;4.50;;
66342;SDS011;53144;51.524;5.080;2022-12-08T04:23:50;6.25;;;3.65;;
66342;SDS011;53144;51.524;5.080;2022-12-08T04:26:15;4.80;;;3.55;;
66342;SDS011;53144;51.524;5.080;2022-12-08T04:28:41;6.43;;;3.17;;
66342;SDS011;53144;51.524;5.080;2022-12-08T04:31:07;4.35;;;2.53;;
66342;SDS011;53144;51.524;5.080;2022-12-08T04:33:32;3.67;;;2.53;;
66342;SDS011;53144;51.524;5.080;2022-12-08T04:38:24;2.55;;;2.35;;
66342;SDS011;53144;51.524;5.080;2022-12-08T04:40:50;6.93;;;2.38;;
66342;SDS011;53144;51.524;5.080;2022-12-08T04:43:18;3.35;;;2.20;;
66342;SDS011;53144;51.524;5.080;2022-12-08T04:45:43;3.30;;;2.38;;
66342;SDS011;53144;51.524;5.080;2022-12-08T04:50:39;2.20;;;1.95;;
66342;SDS011;53144;51.524;5.080;2022-12-08T04:53:11;3.90;;;2.03;;
66342;SDS011;53144;51.524;5.080;2022-12-08T04:55:38;2.70;;;2.15;;
66342;SDS011;53144;51.524;5.080;2022-12-08T04:58:04;5.43;;;1.90;;
66342;SDS011;53144;51.524;5.080;2022-12-08T05:00:30;3.13;;;2.22;;
66342;SDS011;53144;51.524;5.080;2022-12-08T05:02:55;3.10;;;2.00;;
66342;SDS011;53144;51.524;5.080;2022-12-08T05:05:21;2.35;;;2.15;;
66342;SDS011;53144;51.524;5.080;2022-12-08T05:07:46;2.83;;;1.95;;
66342;SDS011;53144;51.524;5.080;2022-12-08T05:10:12;1.63;;;1.48;;
66342;SDS011;53144;51.524;5.080;2022-12-08T05:12:37;3.40;;;1.60;;
66342;SDS011;53144;51.524;5.080;2022-12-08T05:15:03;3.03;;;1.50;;
66342;SDS011;53144;51.524;5.080;2022-12-08T05:17:29;5.50;;;1.70;;
66342;SDS011;53144;51.524;5.080;2022-12-08T05:19:54;3.65;;;1.67;;
66342;SDS011;53144;51.524;5.080;2022-12-08T05:22:20;4.03;;;1.40;;
66342;SDS011;53144;51.524;5.080;2022-12-08T05:24:45;3.28;;;1.30;;
66342;SDS011;53144;51.524;5.080;2022-12-08T05:27:11;2.67;;;1.40;;
66342;SDS011;53144;51.524;5.080;2022-12-08T05:29:36;5.95;;;1.30;;
66342;SDS011;53144;51.524;5.080;2022-12-08T05:32:02;2.40;;;1.40;;
66342;SDS011;53144;51.524;5.080;2022-12-08T05:34:27;4.97;;;1.45;;
66342;SDS011;53144;51.524;5.080;2022-12-08T05:37:00;2.60;;;1.70;;
66342;SDS011;53144;51.524;5.080;2022-12-08T05:39:26;2.97;;;1.33;;
66342;SDS011;53144;51.524;5.080;2022-12-08T05:41:51;3.55;;;1.73;;
66342;SDS011;53144;51.524;5.080;2022-12-08T05:44:17;1.75;;;1.10;;
66342;SDS011;53144;51.524;5.080;2022-12-08T05:46:42;2.17;;;1.50;;
66342;SDS011;53144;51.524;5.080;2022-12-08T05:49:07;3.27;;;1.40;;
66342;SDS011;53144;51.524;5.080;2022-12-08T05:51:33;4.20;;;1.48;;
66342;SDS011;53144;51.524;5.080;2022-12-08T05:53:58;3.05;;;1.60;;
66342;SDS011;53144;51.524;5.080;2022-12-08T05:56:24;4.13;;;1.40;;
66342;SDS011;53144;51.524;5.080;2022-12-08T05:58:50;4.80;;;1.70;;
66342;SDS011;53144;51.524;5.080;2022-12-08T06:01:22;3.40;;;1.50;;
66342;SDS011;53144;51.524;5.080;2022-12-08T06:03:52;3.13;;;1.55;;
66342;SDS011;53144;51.524;5.080;2022-12-08T06:06:21;2.38;;;2.00;;
66342;SDS011;53144;51.524;5.080;2022-12-08T06:08:46;5.55;;;2.42;;
66342;SDS011;53144;51.524;5.080;2022-12-08T06:11:19;4.15;;;2.70;;
66342;SDS011;53144;51.524;5.080;2022-12-08T06:13:55;4.57;;;2.25;;
66342;SDS011;53144;51.524;5.080;2022-12-08T06:16:21;4.28;;;2.08;;
66342;SDS011;53144;51.524;5.080;2022-12-08T06:18:48;4.22;;;2.30;;
66342;SDS011;53144;51.524;5.080;2022-12-08T06:21:14;5.10;;;2.20;;
66342;SDS011;53144;51.524;5.080;2022-12-08T06:23:40;3.75;;;2.25;;
66342;SDS011;53144;51.524;5.080;2022-12-08T06:26:08;5.68;;;2.20;;
66342;SDS011;53144;51.524;5.080;2022-12-08T06:28:36;4.53;;;2.42;;
66342;SDS011;53144;51.524;5.080;2022-12-08T06:33:34;5.65;;;2.55;;
66342;SDS011;53144;51.524;5.080;2022-12-08T06:35:59;6.03;;;2.25;;
66342;SDS011;53144;51.524;5.080;2022-12-08T06:38:25;3.30;;;2.22;;
66342;SDS011;53144;51.524;5.080;2022-12-08T06:40:54;4.93;;;2.60;;
66342;SDS011;53144;51.524;5.080;2022-12-08T06:43:20;4.15;;;2.53;;
66342;SDS011;53144;51.524;5.080;2022-12-08T06:45:46;3.47;;;2.30;;
66342;SDS011;53144;51.524;5.080;2022-12-08T06:48:11;9.43;;;3.10;;
66342;SDS011;53144;51.524;5.080;2022-12-08T06:50:36;6.55;;;3.97;;
66342;SDS011;53144;51.524;5.080;2022-12-08T06:53:02;7.20;;;4.23;;
66342;SDS011;53144;51.524;5.080;2022-12-08T06:55:30;8.85;;;3.70;;
66342;SDS011;53144;51.524;5.080;2022-12-08T06:57:55;6.72;;;4.38;;
66342;SDS011;53144;51.524;5.080;2022-12-08T07:00:21;7.30;;;4.38;;
66342;SDS011;53144;51.524;5.080;2022-12-08T07:02:47;6.07;;;4.40;;
66342;SDS011;53144;51.524;5.080;2022-12-08T07:05:15;11.02;;;6.70;;
66342;SDS011;53144;51.524;5.080;2022-12-08T07:07:40;10.48;;;6.45;;
66342;SDS011;53144;51.524;5.080;2022-12-08T07:10:06;10.88;;;7.43;;
66342;SDS011;53144;51.524;5.080;2022-12-08T07:12:32;15.95;;;8.73;;
66342;SDS011;53144;51.524;5.080;2022-12-08T07:14:57;17.33;;;9.95;;
66342;SDS011;53144;51.524;5.080;2022-12-08T07:17:23;12.98;;;8.88;;
66342;SDS011;53144;51.524;5.080;2022-12-08T07:19:50;14.05;;;9.18;;
66342;SDS011;53144;51.524;5.080;2022-12-08T07:22:16;12.70;;;7.77;;
66342;SDS011;53144;51.524;5.080;2022-12-08T07:24:41;13.27;;;8.48;;
66342;SDS011;53144;51.524;5.080;2022-12-08T07:27:07;16.20;;;8.80;;
66342;SDS011;53144;51.524;5.080;2022-12-08T07:29:32;11.60;;;8.13;;
66342;SDS011;53144;51.524;5.080;2022-12-08T07:31:58;16.80;;;9.77;;
66342;SDS011;53144;51.524;5.080;2022-12-08T07:34:23;16.10;;;10.05;;
66342;SDS011;53144;51.524;5.080;2022-12-08T07:36:49;15.45;;;10.07;;
66342;SDS011;53144;51.524;5.080;2022-12-08T07:39:17;16.30;;;10.68;;
66342;SDS011;53144;51.524;5.080;2022-12-08T07:41:42;21.10;;;10.27;;
66342;SDS011;53144;51.524;5.080;2022-12-08T07:44:08;17.55;;;10.65;;
66342;SDS011;53144;51.524;5.080;2022-12-08T07:46:36;18.40;;;10.38;;
66342;SDS011;53144;51.524;5.080;2022-12-08T07:49:04;17.08;;;9.80;;
66342;SDS011;53144;51.524;5.080;2022-12-08T07:51:29;16.08;;;10.45;;
66342;SDS011;53144;51.524;5.080;2022-12-08T07:53:55;15.27;;;10.38;;
66342;SDS011;53144;51.524;5.080;2022-12-08T07:56:27;13.30;;;9.50;;
66342;SDS011;53144;51.524;5.080;2022-12-08T07:59:16;15.63;;;9.48;;
66342;SDS011;53144;51.524;5.080;2022-12-08T08:01:56;12.43;;;8.43;;
66342;SDS011;53144;51.524;5.080;2022-12-08T08:04:22;9.68;;;5.60;;
66342;SDS011;53144;51.524;5.080;2022-12-08T08:06:50;9.13;;;4.60;;
66342;SDS011;53144;51.524;5.080;2022-12-08T08:12:11;7.10;;;3.92;;
66342;SDS011;53144;51.524;5.080;2022-12-08T08:17:38;6.78;;;3.00;;
66342;SDS011;53144;51.524;5.080;2022-12-08T08:20:05;5.30;;;3.38;;
66342;SDS011;53144;51.524;5.080;2022-12-08T08:22:32;9.10;;;3.13;;
66342;SDS011;53144;51.524;5.080;2022-12-08T08:24:58;7.22;;;3.50;;
66342;SDS011;53144;51.524;5.080;2022-12-08T08:27:23;7.47;;;4.20;;
66342;SDS011;53144;51.524;5.080;2022-12-08T08:29:53;7.15;;;5.15;;
66342;SDS011;53144;51.524;5.080;2022-12-08T08:32:18;9.60;;;6.32;;
66342;SDS011;53144;51.524;5.080;2022-12-08T08:34:56;8.82;;;6.03;;
66342;SDS011;53144;51.524;5.080;2022-12-08T08:37:58;6.93;;;4.82;;
66342;SDS011;53144;51.524;5.080;2022-12-08T08:40:26;11.85;;;4.55;;
66342;SDS011;53144;51.524;5.080;2022-12-08T08:43:03;5.55;;;3.45;;
66342;SDS011;53144;51.524;5.080;2022-12-08T08:48:28;4.90;;;2.67;;
66342;SDS011;53144;51.524;5.080;2022-12-08T08:51:05;4.82;;;2.30;;
66342;SDS011;53144;51.524;5.080;2022-12-08T08:53:49;4.07;;;2.08;;
66342;SDS011;53144;51.524;5.080;2022-12-08T08:56:17;4.47;;;2.50;;
66342;SDS011;53144;51.524;5.080;2022-12-08T08:58:49;7.43;;;3.92;;
66342;SDS011;53144;51.524;5.080;2022-12-08T09:01:21;14.63;;;9.40;;
66342;SDS011;53144;51.524;5.080;2022-12-08T09:03:55;10.82;;;6.35;;
66342;SDS011;53144;51.524;5.080;2022-12-08T09:06:23;5.90;;;3.30;;
66342;SDS011;53144;51.524;5.080;2022-12-08T09:08:49;6.82;;;2.63;;
66342;SDS011;53144;51.524;5.080;2022-12-08T09:11:15;4.15;;;2.38;;
66342;SDS011;53144;51.524;5.080;2022-12-08T09:13:42;2.85;;;1.83;;
66342;SDS011;53144;51.524;5.080;2022-12-08T09:16:09;4.97;;;2.33;;
66342;SDS011;53144;51.524;5.080;2022-12-08T09:18:35;6.78;;;2.40;;
66342;SDS011;53144;51.524;5.080;2022-12-08T09:21:07;5.32;;;2.40;;
66342;SDS011;53144;51.524;5.080;2022-12-08T09:23:37;3.05;;;2.20;;
66342;SDS011;53144;51.524;5.080;2022-12-08T09:26:02;3.83;;;2.20;;
66342;SDS011;53144;51.524;5.080;2022-12-08T09:30:54;6.13;;;3.15;;
66342;SDS011;53144;51.524;5.080;2022-12-08T09:33:20;7.30;;;2.67;;
66342;SDS011;53144;51.524;5.080;2022-12-08T09:35:45;5.75;;;2.92;;
66342;SDS011;53144;51.524;5.080;2022-12-08T09:38:11;4.95;;;3.63;;
66342;SDS011;53144;51.524;5.080;2022-12-08T09:40:39;6.55;;;4.07;;
66342;SDS011;53144;51.524;5.080;2022-12-08T09:43:31;8.32;;;4.40;;
66342;SDS011;53144;51.524;5.080;2022-12-08T09:46:06;11.18;;;5.07;;
66342;SDS011;53144;51.524;5.080;2022-12-08T09:48:37;9.65;;;4.72;;
66342;SDS011;53144;51.524;5.080;2022-12-08T09:51:10;9.90;;;5.60;;
66342;SDS011;53144;51.524;5.080;2022-12-08T09:53:43;11.35;;;6.70;;
66342;SDS011;53144;51.524;5.080;2022-12-08T09:56:16;10.82;;;7.30;;
66342;SDS011;53144;51.524;5.080;2022-12-08T10:01:19;9.05;;;5.50;;
66342;SDS011;53144;51.524;5.080;2022-12-08T10:03:49;11.18;;;5.65;;
66342;SDS011;53144;51.524;5.080;2022-12-08T10:09:04;7.63;;;4.90;;
66342;SDS011;53144;51.524;5.080;2022-12-08T10:11:53;10.15;;;5.60;;
66342;SDS011;53144;51.524;5.080;2022-12-08T10:17:36;12.15;;;5.85;;
66342;SDS011;53144;51.524;5.080;2022-12-08T10:20:14;9.93;;;5.90;;
66342;SDS011;53144;51.524;5.080;2022-12-08T10:22:42;11.38;;;6.75;;
66342;SDS011;53144;51.524;5.080;2022-12-08T10:27:47;19.30;;;8.07;;
66342;SDS011;53144;51.524;5.080;2022-12-08T10:30:16;13.65;;;9.27;;
66342;SDS011;53144;51.524;5.080;2022-12-08T10:32:44;16.33;;;9.35;;
66342;SDS011;53144;51.524;5.080;2022-12-08T10:35:12;17.83;;;10.18;;
66342;SDS011;53144;51.524;5.080;2022-12-08T10:37:40;15.05;;;10.75;;
66342;SDS011;53144;51.524;5.080;2022-12-08T10:40:15;16.77;;;10.40;;
66342;SDS011;53144;51.524;5.080;2022-12-08T10:42:42;15.60;;;10.93;;
66342;SDS011;53144;51.524;5.080;2022-12-08T10:53:29;17.48;;;10.65;;
66342;SDS011;53144;51.524;5.080;2022-12-08T10:58:26;15.60;;;9.80;;
66342;SDS011;53144;51.524;5.080;2022-12-08T11:03:53;6.00;;;4.45;;
66342;SDS011;53144;51.524;5.080;2022-12-08T11:08:59;4.10;;;3.60;;
66342;SDS011;53144;51.524;5.080;2022-12-08T11:11:43;5.97;;;3.88;;
66342;SDS011;53144;51.524;5.080;2022-12-08T11:16:55;5.25;;;4.13;;
66342;SDS011;53144;51.524;5.080;2022-12-08T11:19:27;5.65;;;3.85;;
66342;SDS011;53144;51.524;5.080;2022-12-08T11:21:56;6.60;;;4.22;;
66342;SDS011;53144;51.524;5.080;2022-12-08T11:24:25;7.53;;;4.97;;
66342;SDS011;53144;51.524;5.080;2022-12-08T11:27:04;9.48;;;5.20;;
66342;SDS011;53144;51.524;5.080;2022-12-08T11:29:31;7.28;;;4.88;;
66342;SDS011;53144;51.524;5.080;2022-12-08T11:31:59;8.57;;;5.18;;
66342;SDS011;53144;51.524;5.080;2022-12-08T11:34:37;8.70;;;5.57;;
66342;SDS011;53144;51.524;5.080;2022-12-08T11:39:40;7.05;;;5.18;;
66342;SDS011;53144;51.524;5.080;2022-12-08T11:42:11;7.65;;;5.05;;
66342;SDS011;53144;51.524;5.080;2022-12-08T11:44:56;9.60;;;5.28;;
66342;SDS011;53144;51.524;5.080;2022-12-08T11:47:27;7.03;;;4.72;;
66342;SDS011;53144;51.524;5.080;2022-12-08T11:50:16;4.88;;;3.90;;
66342;SDS011;53144;51.524;5.080;2022-12-08T12:02:22;8.10;;;3.75;;
66342;SDS011;53144;51.524;5.080;2022-12-08T12:04:57;6.30;;;3.50;;
66342;SDS011;53144;51.524;5.080;2022-12-08T12:10:50;6.53;;;4.10;;
66342;SDS011;53144;51.524;5.080;2022-12-08T12:19:20;5.85;;;4.25;;
66342;SDS011;53144;51.524;5.080;2022-12-08T12:21:54;4.25;;;3.45;;
66342;SDS011;53144;51.524;5.080;2022-12-08T12:27:00;3.92;;;3.08;;
66342;SDS011;53144;51.524;5.080;2022-12-08T12:29:31;4.10;;;2.70;;
66342;SDS011;53144;51.524;5.080;2022-12-08T12:32:03;4.07;;;2.40;;
66342;SDS011;53144;51.524;5.080;2022-12-08T12:34:33;2.47;;;2.03;;
66342;SDS011;53144;51.524;5.080;2022-12-08T12:39:33;1.90;;;1.60;;
66342;SDS011;53144;51.524;5.080;2022-12-08T12:42:33;2.03;;;1.85;;
66342;SDS011;53144;51.524;5.080;2022-12-08T13:03:34;3.78;;;3.47;;
66342;SDS011;53144;51.524;5.080;2022-12-08T13:06:01;3.50;;;3.20;;
66342;SDS011;53144;51.524;5.080;2022-12-08T13:08:27;3.65;;;3.35;;
66342;SDS011;53144;51.524;5.080;2022-12-08T13:11:04;5.22;;;3.65;;
66342;SDS011;53144;51.524;5.080;2022-12-08T13:13:35;3.88;;;3.42;;
66342;SDS011;53144;51.524;5.080;2022-12-08T13:18:56;3.95;;;3.45;;
66342;SDS011;53144;51.524;5.080;2022-12-08T13:21:35;3.47;;;3.17;;
66342;SDS011;53144;51.524;5.080;2022-12-08T13:24:13;2.10;;;1.90;;
66342;SDS011;53144;51.524;5.080;2022-12-08T13:29:29;2.13;;;1.92;;
66342;SDS011;53144;51.524;5.080;2022-12-08T13:34:37;2.45;;;1.85;;
66342;SDS011;53144;51.524;5.080;2022-12-08T13:37:41;1.80;;;1.70;;
66342;SDS011;53144;51.524;5.080;2022-12-08T13:40:15;1.73;;;1.10;;
66342;SDS011;53144;51.524;5.080;2022-12-08T13:45:34;1.67;;;1.05;;
66342;SDS011;53144;51.524;5.080;2022-12-08T13:53:50;1.40;;;1.30;;
66342;SDS011;53144;51.524;5.080;2022-12-08T13:56:28;1.77;;;1.30;;
66342;SDS011;53144;51.524;5.080;2022-12-08T13:59:05;2.15;;;1.60;;
66342;SDS011;53144;51.524;5.080;2022-12-08T14:01:48;1.48;;;1.30;;
66342;SDS011;53144;51.524;5.080;2022-12-08T14:06:45;2.97;;;1.58;;
66342;SDS011;53144;51.524;5.080;2022-12-08T14:09:21;1.55;;;1.33;;
66342;SDS011;53144;51.524;5.080;2022-12-08T14:11:57;2.55;;;1.40;;
66342;SDS011;53144;51.524;5.080;2022-12-08T14:17:20;1.63;;;1.52;;
66342;SDS011;53144;51.524;5.080;2022-12-08T14:19:55;1.48;;;1.38;;
66342;SDS011;53144;51.524;5.080;2022-12-08T14:22:30;1.90;;;1.60;;
66342;SDS011;53144;51.524;5.080;2022-12-08T14:24:57;4.65;;;2.13;;
66342;SDS011;53144;51.524;5.080;2022-12-08T14:27:23;2.47;;;1.73;;
66342;SDS011;53144;51.524;5.080;2022-12-08T14:29:57;4.85;;;1.80;;
66342;SDS011;53144;51.524;5.080;2022-12-08T14:35:00;4.78;;;2.40;;
66342;SDS011;53144;51.524;5.080;2022-12-08T14:37:42;2.85;;;2.38;;
66342;SDS011;53144;51.524;5.080;2022-12-08T14:45:32;6.32;;;3.75;;
66342;SDS011;53144;51.524;5.080;2022-12-08T14:50:43;2.58;;;2.35;;
66342;SDS011;53144;51.524;5.080;2022-12-08T14:53:22;3.67;;;2.25;;
66342;SDS011;53144;51.524;5.080;2022-12-08T14:55:55;2.40;;;2.20;;
66342;SDS011;53144;51.524;5.080;2022-12-08T14:58:29;2.40;;;2.20;;
66342;SDS011;53144;51.524;5.080;2022-12-08T15:00:55;3.72;;;2.97;;
66342;SDS011;53144;51.524;5.080;2022-12-08T15:03:28;4.15;;;3.10;;
66342;SDS011;53144;51.524;5.080;2022-12-08T15:05:56;5.18;;;3.50;;
66342;SDS011;53144;51.524;5.080;2022-12-08T15:08:23;4.57;;;3.30;;
66342;SDS011;53144;51.524;5.080;2022-12-08T15:13:42;5.45;;;2.70;;
66342;SDS011;53144;51.524;5.080;2022-12-08T15:16:20;3.47;;;2.47;;
66342;SDS011;53144;51.524;5.080;2022-12-08T15:18:59;6.82;;;2.80;;
66342;SDS011;53144;51.524;5.080;2022-12-08T15:21:28;3.53;;;2.42;;
66342;SDS011;53144;51.524;5.080;2022-12-08T15:23:55;6.05;;;2.97;;
66342;SDS011;53144;51.524;5.080;2022-12-08T15:26:24;3.10;;;2.40;;
66342;SDS011;53144;51.524;5.080;2022-12-08T15:28:51;3.63;;;2.72;;
66342;SDS011;53144;51.524;5.080;2022-12-08T15:31:18;2.72;;;2.10;;
66342;SDS011;53144;51.524;5.080;2022-12-08T15:33:44;3.83;;;1.90;;
66342;SDS011;53144;51.524;5.080;2022-12-08T15:36:09;2.28;;;1.92;;
66342;SDS011;53144;51.524;5.080;2022-12-08T15:38:35;3.42;;;2.17;;
66342;SDS011;53144;51.524;5.080;2022-12-08T15:43:33;2.78;;;2.10;;
66342;SDS011;53144;51.524;5.080;2022-12-08T15:45:59;3.05;;;2.10;;
66342;SDS011;53144;51.524;5.080;2022-12-08T15:48:31;2.97;;;1.98;;
66342;SDS011;53144;51.524;5.080;2022-12-08T15:50:59;3.15;;;2.28;;
66342;SDS011;53144;51.524;5.080;2022-12-08T15:53:25;4.35;;;3.10;;
66342;SDS011;53144;51.524;5.080;2022-12-08T15:55:50;6.10;;;3.92;;
66342;SDS011;53144;51.524;5.080;2022-12-08T15:58:20;10.35;;;5.10;;
66342;SDS011;53144;51.524;5.080;2022-12-08T16:00:47;15.27;;;8.60;;
66342;SDS011;53144;51.524;5.080;2022-12-08T16:03:20;9.20;;;6.13;;
66342;SDS011;53144;51.524;5.080;2022-12-08T16:05:48;6.20;;;4.47;;
66342;SDS011;53144;51.524;5.080;2022-12-08T16:08:13;6.55;;;3.92;;
66342;SDS011;53144;51.524;5.080;2022-12-08T16:10:40;6.88;;;4.78;;
66342;SDS011;53144;51.524;5.080;2022-12-08T16:13:18;8.65;;;5.70;;
66342;SDS011;53144;51.524;5.080;2022-12-08T16:16:25;8.23;;;5.00;;
66342;SDS011;53144;51.524;5.080;2022-12-08T16:18:55;10.85;;;6.35;;
66342;SDS011;53144;51.524;5.080;2022-12-08T16:21:20;8.00;;;6.10;;
66342;SDS011;53144;51.524;5.080;2022-12-08T16:23:46;6.65;;;5.25;;
66342;SDS011;53144;51.524;5.080;2022-12-08T16:28:39;9.40;;;5.28;;
66342;SDS011;53144;51.524;5.080;2022-12-08T16:31:05;5.90;;;4.70;;
66342;SDS011;53144;51.524;5.080;2022-12-08T16:33:34;9.18;;;6.80;;
66342;SDS011;53144;51.524;5.080;2022-12-08T16:35:59;10.05;;;5.90;;
66342;SDS011;53144;51.524;5.080;2022-12-08T16:38:25;10.60;;;7.55;;
66342;SDS011;53144;51.524;5.080;2022-12-08T16:40:50;11.77;;;7.60;;
66342;SDS011;53144;51.524;5.080;2022-12-08T16:43:36;8.88;;;5.57;;
66342;SDS011;53144;51.524;5.080;2022-12-08T16:46:02;9.95;;;6.00;;
66342;SDS011;53144;51.524;5.080;2022-12-08T16:48:27;9.93;;;6.40;;
66342;SDS011;53144;51.524;5.080;2022-12-08T16:50:53;7.15;;;5.30;;
66342;SDS011;53144;51.524;5.080;2022-12-08T16:53:18;7.78;;;5.57;;
66342;SDS011;53144;51.524;5.080;2022-12-08T16:55:45;7.72;;;5.80;;
66342;SDS011;53144;51.524;5.080;2022-12-08T16:58:11;8.10;;;5.95;;
66342;SDS011;53144;51.524;5.080;2022-12-08T17:00:37;8.85;;;5.55;;
66342;SDS011;53144;51.524;5.080;2022-12-08T17:03:02;8.00;;;6.00;;
66342;SDS011;53144;51.524;5.080;2022-12-08T17:05:29;8.88;;;5.68;;
66342;SDS011;53144;51.524;5.080;2022-12-08T17:07:54;10.25;;;5.85;;
66342;SDS011;53144;51.524;5.080;2022-12-08T17:10:25;7.53;;;6.03;;
66342;SDS011;53144;51.524;5.080;2022-12-08T17:12:55;8.85;;;6.22;;
66342;SDS011;53144;51.524;5.080;2022-12-08T17:15:22;8.95;;;6.15;;
66342;SDS011;53144;51.524;5.080;2022-12-08T17:17:54;10.10;;;6.63;;
66342;SDS011;53144;51.524;5.080;2022-12-08T17:20:26;10.32;;;6.97;;
66342;SDS011;53144;51.524;5.080;2022-12-08T17:22:55;13.32;;;6.72;;
66342;SDS011;53144;51.524;5.080;2022-12-08T17:25:25;14.18;;;7.07;;
66342;SDS011;53144;51.524;5.080;2022-12-08T17:27:58;10.93;;;7.82;;
66342;SDS011;53144;51.524;5.080;2022-12-08T17:30:26;13.57;;;8.77;;
66342;SDS011;53144;51.524;5.080;2022-12-08T17:32:54;12.82;;;8.05;;
66342;SDS011;53144;51.524;5.080;2022-12-08T17:35:19;11.32;;;7.65;;
66342;SDS011;53144;51.524;5.080;2022-12-08T17:37:45;12.23;;;9.32;;
66342;SDS011;53144;51.524;5.080;2022-12-08T17:40:11;10.35;;;8.18;;
66342;SDS011;53144;51.524;5.080;2022-12-08T17:42:36;11.95;;;9.13;;
66342;SDS011;53144;51.524;5.080;2022-12-08T17:45:02;12.18;;;9.60;;
66342;SDS011;53144;51.524;5.080;2022-12-08T17:47:28;10.98;;;8.88;;